Terminal Aerodrome Forecast
Issued by NWS

Home | Current Version | Previous Version | Text Only | Print | Product List | Glossary On
Versions: 1 2 3 4 5 6 7 8 9 10 11 12 13 14
000
FTUS43 KPAH 260520
TAFOWB
TAF
KOWB 260520Z 2606/2706 VRB03KT P6SM SKC
     FM261500 16007KT P6SM SCT200
     FM261800 19008KT P6SM SCT080 BKN120
     FM262200 19007KT P6SM BKN080
     FM270200 16005KT P6SM VCSH BKN035=

USA.gov is the U.S. government's official web portal to all federal, state and local government web resources and services.